Time;durP1;ratioP1;P1;durP2;ratioP2;P2;SDS_P1;SDS_P2;PMS_P1;PMS_P2;Temp;Humidity;BMP_temperature;BMP_pressure;BME280_temperature;BME280_humidity;BME280_pressure;Samples;Min_cycle;Max_cycle;Signal;HPM_P1;HPM_P2
2023/08/21 00:00:05;;;;;;;5.70;1.80;;;16.80;99.90;;;;;;5048583;28;20614;-74
2023/08/21 00:02:30;;;;;;;6.15;1.60;;;16.80;99.90;;;;;;5047113;28;20056;-74
2023/08/21 00:04:56;;;;;;;6.80;2.42;;;16.70;99.90;;;;;;5060543;28;20677;-73
2023/08/21 00:07:22;;;;;;;8.13;2.35;;;16.70;99.90;;;;;;5078286;28;20053;-71
2023/08/21 00:09:48;;;;;;;7.25;2.10;;;16.70;99.90;;;;;;5047237;28;20037;-73
2023/08/21 00:12:14;;;;;;;7.35;2.17;;;16.60;99.90;;;;;;5048093;28;20094;-73
2023/08/21 00:14:40;;;;;;;8.75;2.30;;;16.60;99.90;;;;;;5046645;28;20052;-73
2023/08/21 00:17:06;;;;;;;4.22;1.80;;;16.60;99.90;;;;;;5046905;28;20045;-73
2023/08/21 00:19:32;;;;;;;6.65;2.08;;;16.50;99.90;;;;;;5046124;28;20048;-73
2023/08/21 00:21:58;;;;;;;6.38;2.30;;;16.50;99.90;;;;;;5046288;28;20048;-73
2023/08/21 00:24:24;;;;;;;8.57;2.38;;;16.50;99.90;;;;;;5044170;28;20033;-73
2023/08/21 00:26:49;;;;;;;6.18;2.20;;;16.40;99.90;;;;;;5030338;28;20038;-73
2023/08/21 00:29:15;;;;;;;6.18;2.08;;;16.40;99.90;;;;;;5046764;28;20179;-74
2023/08/21 00:31:41;;;;;;;6.43;1.80;;;16.40;99.90;;;;;;5047302;28;20064;-73
2023/08/21 00:34:07;;;;;;;4.57;1.77;;;16.40;99.90;;;;;;5030335;28;20406;-72
2023/08/21 00:36:32;;;;;;;7.13;2.50;;;16.30;99.90;;;;;;5024361;28;20045;-73
2023/08/21 00:38:58;;;;;;;8.00;2.10;;;16.30;99.90;;;;;;5045747;28;20059;-72
2023/08/21 00:41:24;;;;;;;7.60;2.20;;;16.30;99.90;;;;;;5046190;28;20104;-74
2023/08/21 00:43:50;;;;;;;6.28;2.00;;;16.30;99.90;;;;;;5043341;28;20048;-74
2023/08/21 00:46:17;;;;;;;7.65;2.40;;;16.30;99.90;;;;;;5047527;28;20032;-73
2023/08/21 00:48:43;;;;;;;9.07;2.13;;;16.20;99.90;;;;;;5045863;28;20409;-73
2023/08/21 00:51:10;;;;;;;5.93;2.00;;;16.20;99.90;;;;;;5044861;28;20079;-73
2023/08/21 00:53:36;;;;;;;6.70;2.05;;;16.20;99.90;;;;;;5045202;28;20502;-73
2023/08/21 00:56:02;;;;;;;6.97;2.00;;;16.10;99.90;;;;;;5044364;28;20048;-73
2023/08/21 00:58:28;;;;;;;4.85;1.75;;;16.10;99.90;;;;;;5029182;28;20421;-73
2023/08/21 01:00:54;;;;;;;6.63;2.00;;;16.10;99.90;;;;;;5043014;28;20033;-73
2023/08/21 01:03:20;;;;;;;7.38;1.90;;;16.00;99.90;;;;;;5026594;28;20044;-72
2023/08/21 01:05:46;;;;;;;6.50;2.05;;;16.00;99.90;;;;;;5074674;28;20037;-72
2023/08/21 01:08:25;;;;;;;6.97;1.90;;;16.00;99.90;;;;;;5043820;28;20791;-72
2023/08/21 01:11:12;;;;;;;7.15;1.90;;;16.00;99.90;;;;;;5041921;28;20424;-73
2023/08/21 01:13:49;;;;;;;7.90;2.25;;;15.90;99.90;;;;;;5044181;28;20041;-72
2023/08/21 01:16:15;;;;;;;5.15;1.80;;;15.90;99.90;;;;;;5041577;28;20053;-73
2023/08/21 01:18:44;;;;;;;5.78;2.28;;;15.90;99.90;;;;;;5026712;28;20390;-73
2023/08/21 01:21:11;;;;;;;8.82;2.40;;;15.80;99.90;;;;;;5029366;28;20048;-72
2023/08/21 01:23:38;;;;;;;6.00;2.30;;;15.80;99.90;;;;;;5079830;28;20048;-72
2023/08/21 01:26:04;;;;;;;7.75;3.00;;;15.80;99.90;;;;;;5050684;28;20032;-72
2023/08/21 01:28:32;;;;;;;4.68;1.80;;;15.70;99.90;;;;;;5048904;28;20057;-72
2023/08/21 01:31:03;;;;;;;5.93;2.17;;;15.70;99.90;;;;;;5047602;28;20135;-72
2023/08/21 01:33:33;;;;;;;7.13;2.20;;;15.70;99.90;;;;;;5064917;28;20048;-72
2023/08/21 01:36:03;;;;;;;7.40;2.13;;;15.70;99.90;;;;;;5045942;28;20055;-72
2023/08/21 01:38:32;;;;;;;5.43;1.80;;;15.70;99.90;;;;;;5045061;28;20506;-71
2023/08/21 01:40:58;;;;;;;6.18;2.30;;;15.70;99.90;;;;;;5042748;28;20409;-73
2023/08/21 01:43:24;;;;;;;5.93;2.00;;;15.60;99.90;;;;;;5027442;28;20049;-72
2023/08/21 01:45:50;;;;;;;8.90;2.40;;;15.60;99.90;;;;;;5043242;28;20032;-73
2023/08/21 01:48:15;;;;;;;5.45;2.22;;;15.60;99.90;;;;;;5046152;28;20111;-71
2023/08/21 01:50:41;;;;;;;7.47;2.28;;;15.60;99.90;;;;;;5027448;28;20213;-72
2023/08/21 01:53:07;;;;;;;9.63;2.30;;;15.50;99.90;;;;;;5043062;28;20111;-73
2023/08/21 01:55:32;;;;;;;4.93;2.00;;;15.60;99.90;;;;;;5044264;28;20041;-72
2023/08/21 01:57:58;;;;;;;7.22;2.78;;;15.50;99.90;;;;;;5042343;28;20052;-73
2023/08/21 02:00:24;;;;;;;8.35;2.53;;;15.50;99.90;;;;;;5046028;28;20045;-73
2023/08/21 02:02:49;;;;;;;6.25;1.85;;;15.40;99.90;;;;;;5042885;28;20125;-72
2023/08/21 02:05:15;;;;;;;6.85;1.98;;;15.40;99.90;;;;;;5041607;28;20772;-72
2023/08/21 02:07:41;;;;;;;7.72;2.15;;;15.30;99.90;;;;;;5040986;28;20041;-73
2023/08/21 02:10:07;;;;;;;4.85;1.92;;;15.40;99.90;;;;;;5077140;28;20080;-72
2023/08/21 02:12:33;;;;;;;5.45;2.28;;;15.30;99.90;;;;;;5044133;28;20041;-72
2023/08/21 02:14:58;;;;;;;5.78;2.30;;;15.30;99.90;;;;;;5026456;28;20520;-73
2023/08/21 02:17:27;;;;;;;5.03;1.70;;;15.30;99.90;;;;;;5045143;28;20045;-73
2023/08/21 02:19:53;;;;;;;6.22;2.03;;;15.30;99.90;;;;;;5041368;28;20037;-73
2023/08/21 02:22:19;;;;;;;5.28;1.65;;;15.30;99.90;;;;;;5044502;28;20037;-72
2023/08/21 02:24:44;;;;;;;6.43;1.80;;;15.30;99.90;;;;;;5043759;28;20053;-72
2023/08/21 02:27:10;;;;;;;5.32;2.00;;;15.10;99.90;;;;;;5045186;28;20060;-72
2023/08/21 02:29:36;;;;;;;9.02;1.90;;;15.20;99.90;;;;;;5043322;28;20584;-71
2023/08/21 02:32:02;;;;;;;6.93;2.10;;;15.20;99.90;;;;;;5071972;28;20557;-72
2023/08/21 02:34:27;;;;;;;7.97;1.88;;;15.20;99.90;;;;;;5057605;28;20053;-72
2023/08/21 02:36:53;;;;;;;10.05;1.83;;;15.20;99.90;;;;;;5045518;28;20422;-72
2023/08/21 02:39:19;;;;;;;5.32;1.42;;;15.20;99.90;;;;;;5026462;28;20053;-72
2023/08/21 02:41:44;;;;;;;5.35;1.70;;;15.10;99.90;;;;;;5044450;28;20033;-73
2023/08/21 02:44:10;;;;;;;6.10;1.90;;;15.10;99.90;;;;;;5044421;28;20107;-72
2023/08/21 02:46:36;;;;;;;6.25;2.28;;;15.10;99.90;;;;;;5045647;28;20040;-72
2023/08/21 02:49:02;;;;;;;5.90;1.80;;;15.00;99.90;;;;;;5043406;28;20114;-72
2023/08/21 02:51:28;;;;;;;5.95;1.60;;;15.00;99.90;;;;;;5041007;28;20041;-72
2023/08/21 02:53:53;;;;;;;5.57;1.92;;;15.00;99.90;;;;;;5027332;28;20482;-73
2023/08/21 02:56:19;;;;;;;6.10;1.95;;;14.90;99.90;;;;;;5045990;28;20440;-71
2023/08/21 02:58:45;;;;;;;5.60;1.90;;;14.90;99.90;;;;;;5044124;28;20289;-71
2023/08/21 03:01:11;;;;;;;8.30;1.80;;;14.90;99.90;;;;;;5024269;28;20045;-72
2023/08/21 03:03:37;;;;;;;7.82;2.25;;;14.80;99.90;;;;;;5043313;28;20046;-72
2023/08/21 03:06:03;;;;;;;6.20;1.98;;;14.80;99.90;;;;;;5073938;28;20041;-72
2023/08/21 03:08:28;;;;;;;4.93;1.70;;;14.80;99.90;;;;;;5044307;28;20669;-72
2023/08/21 03:10:54;;;;;;;5.93;1.95;;;14.80;99.90;;;;;;5040925;28;20417;-71
2023/08/21 03:13:20;;;;;;;6.30;1.88;;;14.70;99.90;;;;;;5043047;28;20049;-72
2023/08/21 03:15:46;;;;;;;7.03;2.13;;;14.70;99.90;;;;;;5045502;28;20135;-71
2023/08/21 03:18:11;;;;;;;6.10;1.80;;;14.70;99.90;;;;;;5043132;28;20056;-71
2023/08/21 03:20:37;;;;;;;8.65;1.80;;;14.70;99.90;;;;;;5043211;28;20132;-72
2023/08/21 03:23:03;;;;;;;6.95;2.17;;;14.70;99.90;;;;;;5042337;28;20037;-72
2023/08/21 03:25:29;;;;;;;5.40;1.92;;;14.70;99.90;;;;;;5043443;28;20671;-72
2023/08/21 03:27:54;;;;;;;5.85;1.90;;;14.70;99.90;;;;;;5027060;28;20041;-72
2023/08/21 03:30:21;;;;;;;4.15;1.80;;;14.60;99.90;;;;;;5041272;28;20029;-72
2023/08/21 03:32:47;;;;;;;6.22;2.17;;;14.60;99.90;;;;;;5041623;28;20382;-73
2023/08/21 03:35:12;;;;;;;5.43;2.70;;;14.60;99.90;;;;;;5075504;28;20056;-72
2023/08/21 03:37:38;;;;;;;7.38;2.40;;;14.60;99.90;;;;;;5044938;28;20055;-72
2023/08/21 03:40:04;;;;;;;5.63;2.47;;;14.60;99.90;;;;;;5042662;28;20061;-73
2023/08/21 03:42:30;;;;;;;6.90;2.42;;;14.60;99.90;;;;;;5044200;28;20033;-73
2023/08/21 03:44:56;;;;;;;12.07;2.92;;;14.60;99.90;;;;;;5043916;28;20049;-73
2023/08/21 03:47:21;;;;;;;7.80;3.40;;;14.60;99.90;;;;;;5041977;28;20553;-72
2023/08/21 03:49:48;;;;;;;7.80;3.00;;;14.60;99.90;;;;;;5042208;28;20194;-72
2023/08/21 03:52:14;;;;;;;6.70;2.60;;;14.60;99.90;;;;;;5045053;28;20406;-73
2023/08/21 03:54:40;;;;;;;9.85;3.40;;;14.60;99.90;;;;;;5041509;28;20052;-72
2023/08/21 03:57:06;;;;;;;6.43;2.80;;;14.60;99.90;;;;;;5043682;28;20045;-73
2023/08/21 03:59:31;;;;;;;5.82;2.70;;;14.60;99.90;;;;;;5074024;28;20645;-72
2023/08/21 04:01:57;;;;;;;7.78;2.75;;;14.50;99.90;;;;;;5042652;28;20079;-72
2023/08/21 04:04:23;;;;;;;9.32;2.92;;;14.50;99.90;;;;;;5042059;28;20058;-72
2023/08/21 04:06:49;;;;;;;6.07;2.90;;;14.50;99.90;;;;;;5044254;28;20040;-73
2023/08/21 04:09:14;;;;;;;5.93;2.85;;;14.50;99.90;;;;;;5025417;28;20040;-71
2023/08/21 04:11:41;;;;;;;6.82;2.63;;;14.50;99.90;;;;;;5026248;28;20043;-73
2023/08/21 04:14:06;;;;;;;4.68;2.30;;;14.50;99.90;;;;;;5026461;28;20041;-72
2023/08/21 04:16:32;;;;;;;7.22;2.90;;;14.50;99.90;;;;;;5042518;28;20044;-73
2023/08/21 04:18:58;;;;;;;6.88;2.85;;;14.50;99.90;;;;;;5031719;28;20051;-72
2023/08/21 04:21:24;;;;;;;6.95;2.58;;;14.50;99.90;;;;;;5035444;28;20045;-73
2023/08/21 04:23:50;;;;;;;5.85;2.35;;;14.40;99.90;;;;;;5044944;28;20049;-72
2023/08/21 04:26:15;;;;;;;8.18;2.72;;;14.40;99.90;;;;;;5044539;28;20045;-73
2023/08/21 04:28:41;;;;;;;6.25;2.42;;;14.50;99.90;;;;;;5045756;28;20060;-73
2023/08/21 04:31:07;;;;;;;8.80;2.60;;;14.40;99.90;;;;;;5026903;28;20053;-73
2023/08/21 04:33:33;;;;;;;8.07;2.55;;;14.40;99.90;;;;;;5040047;28;20117;-73
2023/08/21 04:36:00;;;;;;;5.13;2.40;;;14.40;99.90;;;;;;5023280;28;20033;-73
2023/08/21 04:38:29;;;;;;;6.10;2.58;;;14.40;99.90;;;;;;5039033;28;20048;-73
2023/08/21 04:40:56;;;;;;;7.45;2.58;;;14.40;99.90;;;;;;5044947;28;20045;-73
2023/08/21 04:43:21;;;;;;;8.48;2.38;;;14.40;99.90;;;;;;5046943;28;20688;-73
2023/08/21 04:45:48;;;;;;;7.18;2.35;;;14.40;99.90;;;;;;5029055;28;20079;-73
2023/08/21 04:48:14;;;;;;;7.45;2.60;;;14.40;99.90;;;;;;5027725;28;20316;-73
2023/08/21 04:50:39;;;;;;;5.05;2.15;;;14.40;99.90;;;;;;5046255;28;20041;-72
2023/08/21 04:53:06;;;;;;;6.32;2.50;;;14.40;99.90;;;;;;5042180;28;20073;-73
2023/08/21 04:55:31;;;;;;;8.02;2.78;;;14.40;99.90;;;;;;5042100;28;20044;-74
2023/08/21 04:57:57;;;;;;;6.57;2.40;;;14.40;99.90;;;;;;5041739;28;20059;-71
2023/08/21 05:00:23;;;;;;;6.07;2.30;;;14.40;99.90;;;;;;5041060;28;20510;-71
2023/08/21 05:02:48;;;;;;;6.97;2.20;;;14.40;99.90;;;;;;5045093;28;20051;-72
2023/08/21 05:05:14;;;;;;;7.43;2.70;;;14.40;99.90;;;;;;5037569;28;20671;-72
2023/08/21 05:07:40;;;;;;;5.80;2.20;;;14.40;99.90;;;;;;5021771;28;20049;-72
2023/08/21 05:10:06;;;;;;;6.72;2.17;;;14.40;99.90;;;;;;5032740;28;20505;-72
2023/08/21 05:12:32;;;;;;;6.43;2.03;;;14.40;99.90;;;;;;5021812;28;20753;-72
2023/08/21 05:14:58;;;;;;;4.85;1.98;;;14.50;99.90;;;;;;5034939;28;20155;-73
2023/08/21 05:17:25;;;;;;;6.22;2.00;;;14.50;99.90;;;;;;5032770;28;20123;-72
2023/08/21 05:19:51;;;;;;;6.10;2.20;;;14.50;99.90;;;;;;5030168;28;20282;-72
2023/08/21 05:22:17;;;;;;;6.68;2.47;;;14.50;99.90;;;;;;5031441;28;20810;-72
2023/08/21 05:24:42;;;;;;;6.93;2.22;;;14.50;99.90;;;;;;5033375;28;20489;-72
2023/08/21 05:27:08;;;;;;;5.78;2.15;;;14.50;99.90;;;;;;5038214;28;20052;-72
2023/08/21 05:29:34;;;;;;;5.20;2.05;;;14.50;99.90;;;;;;5043892;28;20044;-72
2023/08/21 05:32:00;;;;;;;4.85;1.90;;;14.60;99.90;;;;;;5077978;28;20053;-72
2023/08/21 05:34:26;;;;;;;5.20;1.73;;;14.60;99.90;;;;;;5043762;28;20037;-72
2023/08/21 05:36:54;;;;;;;5.25;1.95;;;14.60;99.90;;;;;;5043110;28;20045;-72
2023/08/21 05:39:20;;;;;;;4.88;2.00;;;14.60;99.90;;;;;;5026825;28;20851;-72
2023/08/21 05:41:46;;;;;;;6.15;2.33;;;14.70;99.90;;;;;;5043078;28;20071;-72
2023/08/21 05:44:12;;;;;;;5.88;2.25;;;14.70;99.90;;;;;;5043231;28;20628;-72
2023/08/21 05:46:38;;;;;;;7.63;2.38;;;14.70;99.90;;;;;;5026371;28;20190;-73
2023/08/21 05:49:04;;;;;;;7.03;2.45;;;14.70;99.90;;;;;;5043093;28;20548;-73
2023/08/21 05:51:33;;;;;;;8.55;2.60;;;14.70;99.90;;;;;;5026570;28;20045;-73
2023/08/21 05:53:59;;;;;;;8.05;2.83;;;14.80;99.90;;;;;;5045468;28;20133;-73
2023/08/21 05:56:28;;;;;;;7.93;2.72;;;14.80;99.90;;;;;;5028833;28;20053;-73
2023/08/21 05:58:54;;;;;;;7.70;3.20;;;14.90;99.90;;;;;;5044819;28;20041;-73
2023/08/21 06:01:19;;;;;;;8.48;2.97;;;14.90;99.90;;;;;;5044589;28;20063;-73
2023/08/21 06:03:45;;;;;;;7.90;3.10;;;14.90;99.90;;;;;;5028533;28;20052;-73
2023/08/21 06:06:11;;;;;;;9.48;3.33;;;15.00;99.90;;;;;;5044767;28;20044;-73
2023/08/21 06:08:37;;;;;;;10.98;3.08;;;15.00;99.90;;;;;;5045033;28;20410;-73
2023/08/21 06:11:02;;;;;;;7.85;3.00;;;15.10;99.90;;;;;;5044616;28;20037;-73
2023/08/21 06:13:28;;;;;;;8.95;3.10;;;15.10;99.90;;;;;;5043082;28;20696;-73
2023/08/21 06:15:54;;;;;;;8.40;3.05;;;15.20;99.90;;;;;;5045078;28;20506;-72
2023/08/21 06:18:20;;;;;;;10.90;3.40;;;15.20;99.90;;;;;;5044734;28;20418;-72
2023/08/21 06:20:46;;;;;;;9.32;3.28;;;15.30;99.90;;;;;;5044418;28;20052;-72
2023/08/21 06:23:12;;;;;;;14.80;3.55;;;15.30;99.90;;;;;;5044390;28;20052;-72
2023/08/21 06:25:38;;;;;;;8.30;3.10;;;15.40;99.90;;;;;;5044712;28;20045;-73
2023/08/21 06:28:04;;;;;;;12.48;3.30;;;15.50;99.90;;;;;;5044536;28;20064;-72
2023/08/21 06:30:30;;;;;;;8.30;2.80;;;15.50;99.90;;;;;;5027657;28;20102;-74
2023/08/21 06:32:56;;;;;;;8.27;2.97;;;15.60;99.90;;;;;;5044348;28;20170;-72
2023/08/21 06:35:22;;;;;;;9.60;2.97;;;15.70;99.90;;;;;;5046225;28;20041;-73
2023/08/21 06:37:48;;;;;;;8.27;2.47;;;15.70;99.90;;;;;;5045697;28;20052;-72
2023/08/21 06:40:14;;;;;;;8.02;2.65;;;15.70;99.90;;;;;;5045341;28;20041;-73
2023/08/21 06:42:39;;;;;;;7.18;2.50;;;15.80;99.90;;;;;;5044818;28;20040;-73
2023/08/21 06:45:05;;;;;;;9.35;2.53;;;15.90;99.90;;;;;;5045070;28;20041;-72
2023/08/21 06:47:32;;;;;;;9.25;2.58;;;15.90;99.90;;;;;;5044670;28;20088;-73
2023/08/21 06:50:00;;;;;;;7.20;2.45;;;16.00;99.90;;;;;;5076548;28;20413;-73
2023/08/21 06:52:26;;;;;;;9.77;2.72;;;16.10;99.90;;;;;;5044412;28;20065;-73
2023/08/21 06:54:52;;;;;;;10.55;2.50;;;16.20;99.90;;;;;;5044314;28;20206;-73
2023/08/21 06:57:17;;;;;;;8.73;2.50;;;16.20;99.90;;;;;;5044049;28;20596;-73
2023/08/21 06:59:43;;;;;;;8.82;2.40;;;16.30;99.90;;;;;;5044694;28;20051;-73
2023/08/21 07:02:09;;;;;;;9.05;2.42;;;16.40;99.90;;;;;;5044041;28;20066;-72
2023/08/21 07:04:35;;;;;;;10.43;2.05;;;16.40;99.90;;;;;;5044481;28;20084;-73
2023/08/21 07:07:01;;;;;;;8.30;1.98;;;16.50;99.90;;;;;;5043673;28;20079;-73
2023/08/21 07:09:27;;;;;;;6.30;2.15;;;16.60;99.90;;;;;;5027333;28;20071;-73
2023/08/21 07:11:52;;;;;;;10.60;2.78;;;16.60;99.90;;;;;;5043408;28;21724;-72
2023/08/21 07:14:19;;;;;;;10.88;2.30;;;16.70;99.90;;;;;;5044821;28;20505;-72
2023/08/21 07:16:45;;;;;;;9.45;2.42;;;16.80;99.90;;;;;;5027244;28;20060;-72
2023/08/21 07:19:10;;;;;;;7.55;1.95;;;16.90;99.90;;;;;;5042954;28;20032;-72
2023/08/21 07:21:38;;;;;;;10.95;2.40;;;17.00;99.90;;;;;;5041611;28;20041;-72
2023/08/21 07:24:04;;;;;;;10.50;2.38;;;17.00;99.90;;;;;;5043681;28;20068;-73
2023/08/21 07:26:30;;;;;;;7.70;2.47;;;17.10;99.90;;;;;;5043445;28;20048;-72
2023/08/21 07:28:59;;;;;;;8.98;2.10;;;17.20;99.90;;;;;;5026893;28;20053;-73
2023/08/21 07:31:25;;;;;;;11.48;3.00;;;17.40;99.90;;;;;;5027187;28;20083;-73
2023/08/21 07:33:50;;;;;;;7.05;1.83;;;17.60;99.90;;;;;;5045170;28;20041;-72
2023/08/21 07:36:19;;;;;;;8.65;2.95;;;17.70;99.90;;;;;;5043977;28;20041;-72
2023/08/21 07:38:44;;;;;;;9.05;2.42;;;17.80;99.90;;;;;;5044383;28;20044;-73
2023/08/21 07:41:12;;;;;;;8.77;2.83;;;18.00;99.90;;;;;;5073645;28;20037;-74
2023/08/21 07:43:40;;;;;;;7.70;1.92;;;18.10;99.90;;;;;;5044421;28;20051;-73
2023/08/21 07:46:07;;;;;;;8.43;1.90;;;18.30;99.90;;;;;;5043969;28;20066;-73
2023/08/21 07:48:33;;;;;;;8.65;1.92;;;18.40;99.90;;;;;;5044055;28;20045;-74
2023/08/21 07:50:59;;;;;;;7.57;1.92;;;18.60;99.90;;;;;;5042559;28;20048;-74
2023/08/21 07:53:26;;;;;;;8.80;1.65;;;18.70;99.90;;;;;;5042855;28;20049;-74
2023/08/21 07:55:52;;;;;;;6.00;1.40;;;18.90;99.90;;;;;;5043831;28;20041;-74
2023/08/21 07:58:18;;;;;;;6.15;1.77;;;19.00;99.90;;;;;;5046203;28;20048;-74
2023/08/21 08:00:44;;;;;;;4.80;1.42;;;19.20;99.90;;;;;;5048058;28;20041;-75
2023/08/21 08:03:10;;;;;;;7.03;1.35;;;19.30;99.90;;;;;;5027127;28;20048;-73
2023/08/21 08:05:37;;;;;;;6.38;1.50;;;19.50;99.90;;;;;;5048837;28;20057;-74
2023/08/21 08:08:03;;;;;;;8.20;1.85;;;19.60;99.90;;;;;;5048786;28;20135;-73
2023/08/21 08:10:29;;;;;;;5.70;1.27;;;19.80;99.90;;;;;;5030002;28;20132;-73
2023/08/21 08:12:55;;;;;;;5.20;1.30;;;19.90;99.90;;;;;;5030649;28;20037;-74
2023/08/21 08:15:22;;;;;;;6.35;1.10;;;20.00;99.90;;;;;;5048469;28;20040;-73
2023/08/21 08:17:52;;;;;;;5.55;1.27;;;20.10;99.90;;;;;;5048331;28;20047;-74
2023/08/21 08:20:19;;;;;;;5.25;1.05;;;20.20;99.90;;;;;;5030874;28;20033;-74
2023/08/21 08:22:45;;;;;;;3.63;1.10;;;20.30;99.90;;;;;;5030107;28;20406;-73
2023/08/21 08:25:11;;;;;;;3.95;1.10;;;20.30;99.90;;;;;;5046490;28;20045;-74
2023/08/21 08:27:37;;;;;;;4.55;1.02;;;20.40;99.90;;;;;;5047133;28;20799;-73
2023/08/21 08:30:03;;;;;;;4.20;1.17;;;20.50;99.90;;;;;;5047029;28;20056;-73
2023/08/21 08:32:29;;;;;;;8.23;1.23;;;20.60;99.90;;;;;;5062072;28;20055;-73
2023/08/21 08:34:59;;;;;;;7.65;1.27;;;20.70;99.90;;;;;;5047191;28;20048;-74
2023/08/21 08:37:24;;;;;;;4.85;1.08;;;20.80;99.90;;;;;;5046562;28;20044;-73
2023/08/21 08:39:50;;;;;;;4.15;0.93;;;20.90;99.90;;;;;;5048017;28;20037;-73
2023/08/21 08:42:16;;;;;;;5.63;1.02;;;21.10;99.90;;;;;;5046354;28;20033;-73
2023/08/21 08:44:43;;;;;;;3.47;1.10;;;21.10;99.90;;;;;;5046735;28;20045;-74
2023/08/21 08:47:11;;;;;;;6.78;1.60;;;21.20;99.90;;;;;;5046489;28;20041;-74
2023/08/21 08:49:38;;;;;;;3.53;1.10;;;21.30;99.90;;;;;;5046114;28;20044;-73
2023/08/21 08:52:04;;;;;;;5.97;1.45;;;21.30;99.90;;;;;;5030102;28;20056;-74
2023/08/21 08:54:31;;;;;;;5.70;1.50;;;21.40;99.90;;;;;;5047455;28;20059;-70
2023/08/21 08:56:57;;;;;;;5.50;1.60;;;21.50;99.90;;;;;;5046709;28;20106;-70
2023/08/21 08:59:23;;;;;;;7.85;1.40;;;21.60;99.90;;;;;;5048086;28;20410;-71
2023/08/21 09:01:49;;;;;;;7.80;1.60;;;21.60;99.90;;;;;;5045801;28;20067;-70
2023/08/21 09:04:15;;;;;;;6.57;1.40;;;21.80;99.90;;;;;;5047079;28;20048;-71
2023/08/21 09:06:41;;;;;;;4.38;1.30;;;21.80;99.90;;;;;;5030145;28;20049;-69
2023/08/21 09:09:07;;;;;;;5.78;1.55;;;21.90;99.90;;;;;;5045385;28;20037;-71
2023/08/21 09:11:34;;;;;;;7.05;1.38;;;22.00;99.90;;;;;;5046372;28;20044;-70
2023/08/21 09:14:02;;;;;;;9.27;1.60;;;22.10;99.90;;;;;;5047151;28;20120;-71
2023/08/21 09:16:28;;;;;;;5.95;1.30;;;22.20;99.90;;;;;;5046776;28;20143;-70
2023/08/21 09:18:56;;;;;;;5.18;1.20;;;22.30;99.90;;;;;;5046953;28;20048;-70
2023/08/21 09:21:24;;;;;;;4.72;1.20;;;22.40;99.90;;;;;;5046427;28;20032;-71
2023/08/21 09:23:58;;;;;;;6.60;1.92;;;22.40;99.90;;;;;;5047612;28;20064;-70
2023/08/21 09:26:23;;;;;;;6.22;2.33;;;22.50;99.90;;;;;;5029540;28;20573;-71
2023/08/21 09:28:50;;;;;;;6.65;1.42;;;22.60;99.90;;;;;;5044720;28;20163;-70
2023/08/21 09:31:22;;;;;;;4.35;1.30;;;22.60;99.90;;;;;;5046634;28;20041;-70
2023/08/21 09:34:04;;;;;;;11.10;1.55;;;22.60;99.90;;;;;;5044223;28;20051;-71
2023/08/21 09:36:31;;;;;;;5.80;1.55;;;22.80;99.90;;;;;;5045122;28;20072;-70
2023/08/21 09:38:56;;;;;;;6.10;1.50;;;22.80;99.90;;;;;;5046490;28;20048;-71
2023/08/21 09:41:23;;;;;;;6.00;1.33;;;22.90;99.90;;;;;;5047351;28;20036;-70
2023/08/21 09:43:50;;;;;;;5.68;1.30;;;22.90;99.90;;;;;;5045913;28;20053;-71
2023/08/21 09:46:33;;;;;;;4.30;1.20;;;22.90;99.90;;;;;;5045732;28;20041;-71
2023/08/21 09:49:00;;;;;;;7.72;1.80;;;23.00;99.90;;;;;;5045243;28;20187;-70
2023/08/21 09:51:29;;;;;;;6.20;1.38;;;23.10;99.90;;;;;;5077233;28;20053;-70
2023/08/21 09:53:56;;;;;;;4.45;1.40;;;23.00;99.90;;;;;;5045122;28;20546;-71
2023/08/21 09:56:22;;;;;;;5.97;1.23;;;23.10;99.90;;;;;;5044461;28;20064;-70
2023/08/21 09:58:49;;;;;;;5.18;1.40;;;23.10;99.90;;;;;;5043151;28;20405;-70
2023/08/21 10:01:16;;;;;;;6.78;1.48;;;23.20;99.90;;;;;;5045226;28;20045;-71
2023/08/21 10:03:47;;;;;;;6.18;1.40;;;23.20;99.90;;;;;;5045047;28;20513;-70
2023/08/21 10:06:17;;;;;;;6.50;1.45;;;23.30;99.90;;;;;;5027547;28;20378;-70
2023/08/21 10:08:47;;;;;;;6.05;1.40;;;23.30;99.90;;;;;;5026387;28;20613;-70
2023/08/21 10:11:14;;;;;;;5.40;1.58;;;23.40;99.90;;;;;;5044763;28;20044;-70
2023/08/21 10:13:40;;;;;;;5.32;1.30;;;23.50;99.90;;;;;;5046507;28;20433;-70
2023/08/21 10:16:07;;;;;;;4.88;1.38;;;23.50;99.90;;;;;;5043194;28;20102;-71
2023/08/21 10:18:35;;;;;;;5.05;1.33;;;23.60;99.90;;;;;;5044610;28;20533;-70
2023/08/21 10:21:34;;;;;;;3.95;1.35;;;23.70;99.90;;;;;;5027440;28;20099;-71
2023/08/21 10:24:00;;;;;;;5.18;1.48;;;23.70;99.90;;;;;;5021195;28;20053;-71
2023/08/21 10:26:26;;;;;;;5.43;1.73;;;23.80;99.90;;;;;;5044378;28;20048;-70
2023/08/21 10:29:02;;;;;;;6.38;2.00;;;23.80;99.90;;;;;;5042364;28;20143;-71
2023/08/21 10:31:32;;;;;;;8.57;3.03;;;23.80;99.90;;;;;;5039372;28;20132;-70
2023/08/21 10:34:00;;;;;;;4.55;1.50;;;23.90;99.90;;;;;;5024748;28;20049;-71
2023/08/21 10:36:43;;;;;;;7.55;1.50;;;23.90;99.90;;;;;;5056634;28;20532;-71
2023/08/21 10:39:13;;;;;;;5.93;1.80;;;23.90;99.90;;;;;;5042492;28;20055;-71
2023/08/21 10:41:39;;;;;;;4.50;1.40;;;24.00;99.90;;;;;;5041471;28;20060;-70
2023/08/21 10:44:06;;;;;;;6.45;1.92;;;24.00;99.90;;;;;;5043446;28;20474;-70
2023/08/21 10:46:52;;;;;;;4.30;1.30;;;24.00;99.90;;;;;;5041761;28;20048;-71
2023/08/21 10:49:17;;;;;;;4.38;1.25;;;24.10;99.90;;;;;;5042097;28;20044;-70
2023/08/21 10:51:44;;;;;;;5.15;1.33;;;24.10;99.90;;;;;;5070919;28;20047;-70
2023/08/21 10:54:13;;;;;;;4.40;1.50;;;24.10;99.90;;;;;;5024235;28;20608;-69
2023/08/21 10:56:39;;;;;;;7.90;1.65;;;24.20;99.90;;;;;;5038991;28;20391;-70
2023/08/21 10:59:05;;;;;;;7.65;1.73;;;24.20;99.90;;;;;;5039888;28;20043;-75
2023/08/21 11:01:44;;;;;;;6.00;1.50;;;24.20;99.90;;;;;;5056897;28;20079;-75
2023/08/21 11:04:11;;;;;;;6.45;1.65;;;24.30;99.90;;;;;;5035616;28;20037;-75
2023/08/21 11:06:38;;;;;;;5.80;1.60;;;24.30;99.90;;;;;;5035545;28;20061;-74
2023/08/21 11:09:05;;;;;;;6.13;1.50;;;24.40;99.90;;;;;;5038075;28;20041;-75
2023/08/21 11:11:31;;;;;;;6.60;1.77;;;24.40;99.90;;;;;;5042349;28;20045;-75
2023/08/21 11:13:57;;;;;;;5.78;1.40;;;24.40;99.90;;;;;;5038959;28;20049;-77
2023/08/21 11:16:25;;;;;;;6.78;1.25;;;24.60;99.90;;;;;;5032569;28;20052;-75
2023/08/21 11:18:51;;;;;;;5.45;1.23;;;24.60;99.90;;;;;;5018513;28;20048;-75
2023/08/21 11:21:17;;;;;;;5.85;1.15;;;24.60;99.90;;;;;;5040089;28;20041;-76
2023/08/21 11:23:42;;;;;;;7.07;1.73;;;24.60;99.90;;;;;;5036293;28;20088;-76
2023/08/21 11:26:12;;;;;;;6.88;1.40;;;24.60;99.90;;;;;;5036590;28;20037;-76
2023/08/21 11:28:39;;;;;;;3.65;1.10;;;24.70;99.90;;;;;;5042747;28;20044;-75
2023/08/21 11:31:06;;;;;;;5.65;1.35;;;24.70;99.90;;;;;;5043413;28;20025;-75
2023/08/21 11:33:32;;;;;;;7.95;1.50;;;24.80;99.90;;;;;;5044615;28;20041;-75
2023/08/21 11:36:00;;;;;;;8.63;1.70;;;24.80;99.90;;;;;;5046130;28;20060;-75
2023/08/21 11:38:27;;;;;;;5.65;2.17;;;24.90;99.90;;;;;;5042611;28;20055;-75
2023/08/21 11:40:53;;;;;;;6.47;1.98;;;24.90;99.90;;;;;;5042474;28;20048;-75
2023/08/21 11:43:19;;;;;;;8.05;1.42;;;25.00;99.90;;;;;;5043780;28;21205;-75
2023/08/21 11:45:48;;;;;;;7.55;1.60;;;25.00;99.90;;;;;;5024726;28;20049;-73
2023/08/21 11:48:14;;;;;;;7.43;1.67;;;25.00;99.90;;;;;;5039877;28;20049;-74
2023/08/21 11:50:40;;;;;;;6.80;1.42;;;25.00;99.90;;;;;;5045243;28;20037;-73
2023/08/21 11:53:06;;;;;;;5.70;1.30;;;25.10;99.90;;;;;;5046733;28;20048;-75
2023/08/21 11:55:31;;;;;;;6.10;1.45;;;25.20;99.90;;;;;;5047551;28;20076;-74
2023/08/21 11:57:57;;;;;;;5.65;1.45;;;25.20;99.90;;;;;;5046835;28;20644;-75
2023/08/21 12:00:30;;;;;;;7.88;1.50;;;25.20;99.90;;;;;;5046963;28;20116;-74
2023/08/21 12:02:58;;;;;;;8.02;1.42;;;25.20;99.90;;;;;;5046870;28;20045;-74
2023/08/21 12:05:24;;;;;;;5.43;1.27;;;25.20;99.90;;;;;;5045714;28;20127;-74
2023/08/21 12:07:50;;;;;;;6.72;1.02;;;25.20;99.90;;;;;;5046189;28;20542;-75
2023/08/21 12:10:26;;;;;;;7.85;1.27;;;25.30;99.90;;;;;;5046943;28;20059;-75
2023/08/21 12:12:52;;;;;;;8.35;1.83;;;25.30;99.90;;;;;;5045908;28;20049;-75
2023/08/21 12:15:19;;;;;;;5.53;1.23;;;25.30;99.90;;;;;;5045400;28;20049;-75
2023/08/21 12:17:45;;;;;;;3.78;1.02;;;25.40;99.90;;;;;;5047009;28;20056;-75
2023/08/21 12:20:11;;;;;;;4.72;1.10;;;25.40;99.90;;;;;;5044371;28;20040;-76
2023/08/21 12:22:42;;;;;;;6.03;1.58;;;25.40;99.90;;;;;;5047684;28;20501;-76
2023/08/21 12:25:09;;;;;;;8.27;1.52;;;25.40;99.90;;;;;;5046223;28;20049;-75
2023/08/21 12:27:35;;;;;;;4.63;1.27;;;25.50;99.90;;;;;;5045649;28;20051;-75
2023/08/21 12:30:01;;;;;;;7.55;1.20;;;25.50;99.90;;;;;;5043998;28;20076;-76
2023/08/21 12:32:27;;;;;;;5.88;1.30;;;25.50;99.90;;;;;;5021388;28;20080;-75
2023/08/21 12:34:53;;;;;;;4.95;0.93;;;25.50;99.90;;;;;;5074535;28;20040;-75
2023/08/21 12:37:19;;;;;;;3.45;0.82;;;25.50;99.90;;;;;;5043964;28;20069;-75
2023/08/21 12:39:45;;;;;;;4.57;1.10;;;25.60;99.90;;;;;;5020184;28;20037;-75
2023/08/21 12:42:11;;;;;;;3.97;0.77;;;25.60;99.90;;;;;;5033215;28;20033;-74